MV Finola — OULQ2 — position and weather

sailwx.info

Track history (hours):
 
Tides and Currents Weather Stations Pressure Air Temp Water Temp Dewpoint Dewpoint Depression Visibility Wind Speed Wind Dir Waves Ship Positions

MV Finola

Last reported at 2017-Aug-14 16:43 UTC. Time now 2017-Aug-23 12:01 UTC.
Position S 12°29' E 130°52'.
Warning: this ship's position is 8 days out of date.

Length 85 m; draft 3 m.

Type: Cargo ship. MMSI: 219483000.

Date/timePositionNaut miles runAvg speedWind from/ knotsBaromVisibWave heightAir tempDewpointWater temp
2017-Aug-14 16:43S 12°29' E 130°52'0 0.0
2017-Aug-13 07:41S 12°29' E 130°51'  
2017-Aug-05 23:34N 01°15' E 104°03'411.8
2017-Aug-05 23:14N 01°15' E 103°59'311.9
2017-Aug-05 23:00N 01°14' E 103°56'2 4.8
2017-Aug-05 22:30N 01°15' E 103°54'2 4.1
2017-Aug-05 22:00N 01°16' E 103°53'0 0.0
2017-Aug-05 20:54N 01°16' E 103°53'0 0.0
2017-Aug-05 18:03N 01°16' E 103°53'0 0.0
2017-Aug-05 17:39N 01°16' E 103°53'0 0.0
2017-Aug-05 16:39N 01°16' E 103°53'0 0.0
2017-Aug-05 16:27N 01°16' E 103°53'0 0.2
2017-Aug-05 16:00N 01°16' E 103°53'2 4.5
2017-Aug-05 15:29N 01°14' E 103°53'3 5.8
2017-Aug-05 14:56N 01°11' E 103°52'511.8
2017-Aug-05 14:30N 01°09' E 103°47'611.7
2017-Aug-05 14:00N 01°05' E 103°43'9 9.8
2017-Aug-05 13:07N 01°05' E 103°34'110.7
2017-Aug-05 12:59N 01°06' E 103°33'  
Track history (hours):
 
Tides and Currents Weather Stations Pressure Air Temp Water Temp Dewpoint Dewpoint Depression Visibility Wind Speed Wind Dir Waves Ship Positions

MV Finola

Last reported at 2017-Aug-14 16:43 UTC. Time now 2017-Aug-23 12:01 UTC.
Position S 12°29' E 130°52'.
Warning: this ship's position is 8 days out of date.

Length 85 m; draft 3 m.

Type: Cargo ship. MMSI: 219483000.

Date/timePositionNaut miles runAvg speedWind from/ knotsBaromVisibWave heightAir tempDewpointWater temp
2017-Aug-14 16:43S 12°29' E 130°52'0 0.0
2017-Aug-13 07:41S 12°29' E 130°51'  
2017-Aug-05 23:34N 01°15' E 104°03'411.8
2017-Aug-05 23:14N 01°15' E 103°59'311.9
2017-Aug-05 23:00N 01°14' E 103°56'2 4.8
2017-Aug-05 22:30N 01°15' E 103°54'2 4.1
2017-Aug-05 22:00N 01°16' E 103°53'0 0.0
2017-Aug-05 20:54N 01°16' E 103°53'0 0.0
2017-Aug-05 18:03N 01°16' E 103°53'0 0.0
2017-Aug-05 17:39N 01°16' E 103°53'0 0.0
2017-Aug-05 16:39N 01°16' E 103°53'0 0.0
2017-Aug-05 16:27N 01°16' E 103°53'0 0.2
2017-Aug-05 16:00N 01°16' E 103°53'2 4.5
2017-Aug-05 15:29N 01°14' E 103°53'3 5.8
2017-Aug-05 14:56N 01°11' E 103°52'511.8
2017-Aug-05 14:30N 01°09' E 103°47'611.7
2017-Aug-05 14:00N 01°05' E 103°43'9 9.8
2017-Aug-05 13:07N 01°05' E 103°34'110.7
2017-Aug-05 12:59N 01°06' E 103°33'  

Dump ship's entire track history